Time;durP1;ratioP1;P1;durP2;ratioP2;P2;SDS_P1;SDS_P2;PMS_P1;PMS_P2;Temp;Humidity;BMP_temperature;BMP_pressure;BME280_temperature;BME280_humidity;BME280_pressure;Samples;Min_cycle;Max_cycle;Signal;HPM_P1;HPM_P2
2023/09/13 05:31:40;;;;;;;10.90;1.88;;;17.20;99.90;;;;;;6273368;22;20085;-79
2023/09/13 05:34:05;;;;;;;13.63;2.05;;;17.20;99.90;;;;;;6250294;22;20016;-78
2023/09/13 05:36:31;;;;;;;7.82;1.75;;;17.20;99.90;;;;;;6277699;22;20008;-81
2023/09/13 05:38:57;;;;;;;6.72;1.73;;;17.20;99.90;;;;;;6250949;22;20096;-83
2023/09/13 05:41:22;;;;;;;6.72;1.73;;;17.20;99.90;;;;;;6278764;22;20016;-82
2023/09/13 05:43:48;;;;;;;6.25;1.48;;;17.20;99.90;;;;;;6279245;22;20312;-83
2023/09/13 05:46:15;;;;;;;6.25;1.58;;;17.10;99.90;;;;;;6252267;22;20340;-82
2023/09/13 05:48:41;;;;;;;8.90;1.50;;;17.10;99.90;;;;;;6279013;22;20363;-82
2023/09/13 05:51:07;;;;;;;9.95;2.00;;;17.00;99.90;;;;;;6277578;22;20023;-81
2023/09/13 05:53:32;;;;;;;6.20;1.90;;;16.90;99.90;;;;;;6277667;22;20408;-81
2023/09/13 05:55:58;;;;;;;9.45;1.90;;;16.90;99.90;;;;;;6250749;22;20333;-81
2023/09/13 05:58:24;;;;;;;7.30;1.38;;;16.80;99.90;;;;;;6277566;22;20448;-79
2023/09/13 06:00:50;;;;;;;9.88;2.00;;;16.80;99.90;;;;;;6277243;22;20020;-80
2023/09/13 06:03:17;;;;;;;7.35;2.30;;;16.80;99.90;;;;;;6250668;22;20421;-80
2023/09/13 06:05:43;;;;;;;8.15;1.73;;;16.80;99.90;;;;;;6277384;22;20070;-79
2023/09/13 06:08:09;;;;;;;6.38;1.50;;;16.90;99.90;;;;;;6277482;22;20094;-80
2023/09/13 06:10:35;;;;;;;7.22;1.30;;;16.90;99.90;;;;;;6277797;22;20055;-79
2023/09/13 06:13:00;;;;;;;6.65;1.60;;;16.90;99.90;;;;;;6277444;22;20015;-82
2023/09/13 06:15:26;;;;;;;7.05;1.77;;;16.90;99.90;;;;;;6276786;22;20011;-79
2023/09/13 06:17:53;;;;;;;8.23;2.75;;;16.90;99.90;;;;;;6277231;22;20019;-81
2023/09/13 06:20:19;;;;;;;8.73;1.80;;;16.90;99.90;;;;;;6277323;22;20011;-81
2023/09/13 06:22:45;;;;;;;9.27;2.30;;;16.80;99.90;;;;;;6277045;22;20038;-80
2023/09/13 06:25:10;;;;;;;8.65;1.98;;;16.70;99.90;;;;;;6250138;22;20492;-81
2023/09/13 06:27:36;;;;;;;7.10;1.52;;;16.70;99.90;;;;;;6276567;22;20445;-80
2023/09/13 06:30:02;;;;;;;7.28;1.90;;;16.70;99.90;;;;;;6277070;22;20015;-81
2023/09/13 06:32:28;;;;;;;6.95;1.83;;;16.60;99.90;;;;;;6252007;22;20020;-80
2023/09/13 06:34:58;;;;;;;9.88;2.13;;;16.60;99.90;;;;;;6246499;23;20318;-80
2023/09/13 06:37:25;;;;;;;10.27;2.42;;;16.60;99.90;;;;;;6218331;23;20062;-79
2023/09/13 06:39:51;;;;;;;8.55;2.22;;;16.60;99.90;;;;;;6218906;23;20019;-81
2023/09/13 06:42:17;;;;;;;7.35;1.95;;;16.60;99.90;;;;;;6220058;23;20437;-80
2023/09/13 06:44:43;;;;;;;8.85;2.38;;;16.60;99.90;;;;;;6220063;23;20062;-81
2023/09/13 06:47:09;;;;;;;13.13;2.63;;;16.60;99.90;;;;;;6220020;23;20012;-82
2023/09/13 06:49:35;;;;;;;10.63;3.08;;;16.60;99.90;;;;;;6219918;23;20019;-83
2023/09/13 06:52:02;;;;;;;11.18;2.50;;;16.60;99.90;;;;;;6219779;23;20437;-82
2023/09/13 06:54:27;;;;;;;7.80;2.40;;;16.60;99.90;;;;;;6219198;23;20135;-83
2023/09/13 06:56:54;;;;;;;9.48;2.10;;;16.60;99.90;;;;;;6219569;23;20396;-83
2023/09/13 06:59:20;;;;;;;10.93;2.42;;;16.70;99.90;;;;;;6219774;23;20012;-82
2023/09/13 07:01:46;;;;;;;10.38;2.60;;;16.70;99.90;;;;;;6219703;23;20087;-82
2023/09/13 07:04:13;;;;;;;9.65;2.67;;;16.60;99.90;;;;;;6219727;23;20016;-82
2023/09/13 07:06:39;;;;;;;10.85;2.90;;;16.60;99.90;;;;;;6219782;23;20027;-83
2023/09/13 07:09:05;;;;;;;12.68;2.55;;;16.60;99.90;;;;;;6219477;23;20016;-82
2023/09/13 07:11:31;;;;;;;10.57;2.15;;;16.60;99.90;;;;;;6219798;23;20313;-83
2023/09/13 07:13:58;;;;;;;9.98;2.30;;;16.70;99.90;;;;;;6219770;23;20024;-83
2023/09/13 07:16:23;;;;;;;10.70;2.50;;;16.70;99.90;;;;;;6219741;23;20021;-82
2023/09/13 07:18:49;;;;;;;10.18;2.63;;;16.70;99.90;;;;;;6219774;23;20027;-82
2023/09/13 07:21:15;;;;;;;10.65;2.20;;;16.70;99.90;;;;;;6219363;23;20337;-82
2023/09/13 07:23:40;;;;;;;17.08;2.80;;;16.80;99.90;;;;;;6219629;23;20023;-82
2023/09/13 07:26:06;;;;;;;14.07;2.72;;;16.80;99.90;;;;;;6194716;23;20028;-81
2023/09/13 07:28:32;;;;;;;11.38;2.75;;;16.80;99.90;;;;;;6219666;23;20384;-82
2023/09/13 07:30:57;;;;;;;12.63;2.70;;;16.80;99.90;;;;;;6219119;23;20050;-82
2023/09/13 07:33:23;;;;;;;12.25;2.80;;;16.90;99.90;;;;;;6194210;23;20013;-83
2023/09/13 07:35:49;;;;;;;13.57;3.00;;;16.90;99.90;;;;;;6219306;23;20019;-83
2023/09/13 07:38:14;;;;;;;9.80;2.50;;;16.90;99.90;;;;;;6194320;23;20328;-83
2023/09/13 07:40:40;;;;;;;10.27;2.83;;;16.90;99.90;;;;;;6194695;23;20024;-84
2023/09/13 07:43:09;;;;;;;13.98;2.72;;;16.90;99.90;;;;;;6219105;23;20016;-84
2023/09/13 07:45:34;;;;;;;14.75;2.47;;;16.90;99.90;;;;;;6218821;23;20027;-85
2023/09/13 07:48:02;;;;;;;11.48;2.55;;;16.90;99.90;;;;;;6218902;23;20095;-83
2023/09/13 07:50:32;;;;;;;9.02;2.33;;;16.90;99.90;;;;;;6217980;23;20016;-82
2023/09/13 07:52:58;;;;;;;9.80;2.63;;;16.90;99.90;;;;;;6222507;23;20016;-85
2023/09/13 07:55:25;;;;;;;7.97;2.10;;;16.90;99.90;;;;;;6220557;23;20086;-85
2023/09/13 07:57:50;;;;;;;7.70;2.28;;;16.90;99.90;;;;;;6218495;23;20059;-85
2023/09/13 08:00:16;;;;;;;10.82;2.72;;;16.80;99.90;;;;;;6219678;23;20012;-84
2023/09/13 08:02:44;;;;;;;10.73;2.55;;;16.80;99.90;;;;;;6218951;23;20117;-81
2023/09/13 08:05:09;;;;;;;9.52;2.17;;;16.90;99.90;;;;;;6219027;23;20329;-83
2023/09/13 08:07:35;;;;;;;6.45;1.70;;;16.90;99.90;;;;;;6219445;23;20020;-83
2023/09/13 08:10:02;;;;;;;7.63;2.42;;;16.90;99.90;;;;;;6194090;23;20020;-81
2023/09/13 08:12:28;;;;;;;7.30;1.88;;;16.90;99.90;;;;;;6246223;23;20043;-81
2023/09/13 08:14:54;;;;;;;9.38;2.42;;;16.90;99.90;;;;;;6248056;23;20337;-81
2023/09/13 08:17:20;;;;;;;9.15;2.40;;;17.00;99.90;;;;;;6247795;23;20326;-81
2023/09/13 08:19:46;;;;;;;7.57;2.25;;;17.10;99.90;;;;;;6246634;23;20016;-81
2023/09/13 08:22:15;;;;;;;7.88;1.98;;;17.10;99.90;;;;;;6220207;23;20020;-81
2023/09/13 08:24:41;;;;;;;9.73;2.13;;;17.20;99.90;;;;;;6246829;23;20508;-81
2023/09/13 08:27:06;;;;;;;9.13;2.15;;;17.20;99.90;;;;;;6220092;23;20024;-81
2023/09/13 08:29:33;;;;;;;6.32;1.70;;;17.20;99.90;;;;;;6246918;22;20091;-81
2023/09/13 08:31:59;;;;;;;9.57;1.83;;;17.20;99.90;;;;;;6220798;23;20039;-81
2023/09/13 08:34:25;;;;;;;7.78;1.98;;;17.30;99.90;;;;;;6221378;23;20024;-81
2023/09/13 08:36:53;;;;;;;7.20;1.60;;;17.30;99.90;;;;;;6248533;23;20027;-81
2023/09/13 08:39:19;;;;;;;11.38;2.80;;;17.30;99.90;;;;;;6221119;23;20027;-82
2023/09/13 08:41:50;;;;;;;7.53;1.70;;;17.30;99.90;;;;;;6247881;23;20016;-81
2023/09/13 08:44:20;;;;;;;6.30;1.88;;;17.40;99.90;;;;;;6221219;23;20020;-81
2023/09/13 08:46:50;;;;;;;7.07;1.67;;;17.40;99.90;;;;;;6247907;23;20122;-80
2023/09/13 08:49:17;;;;;;;6.38;1.90;;;17.50;99.90;;;;;;6248071;23;20317;-81
2023/09/13 08:51:46;;;;;;;10.45;2.20;;;17.60;99.90;;;;;;6248507;23;20016;-82
2023/09/13 08:54:13;;;;;;;6.75;1.80;;;17.60;99.90;;;;;;6247854;23;20012;-81
2023/09/13 08:56:42;;;;;;;12.80;2.00;;;17.60;99.90;;;;;;6248337;23;20016;-82
2023/09/13 08:59:15;;;;;;;7.10;2.10;;;17.60;99.90;;;;;;6221225;23;20012;-82
2023/09/13 09:01:48;;;;;;;9.93;2.00;;;17.60;99.90;;;;;;6248205;23;20016;-81
2023/09/13 09:04:17;;;;;;;13.00;2.08;;;17.60;99.90;;;;;;6221180;23;20052;-81
2023/09/13 09:06:44;;;;;;;9.27;2.08;;;17.60;99.90;;;;;;6248001;23;20016;-82
2023/09/13 09:09:12;;;;;;;9.43;2.15;;;17.60;99.90;;;;;;6247326;23;20024;-81
2023/09/13 09:11:41;;;;;;;7.63;1.90;;;17.60;99.90;;;;;;6247776;23;20406;-81
2023/09/13 09:14:08;;;;;;;10.30;2.35;;;17.60;99.90;;;;;;6247995;23;20051;-81
2023/09/13 09:16:35;;;;;;;7.68;1.98;;;17.50;99.90;;;;;;6248050;23;20027;-81
2023/09/13 09:19:04;;;;;;;8.70;2.35;;;17.50;99.90;;;;;;6220815;23;20023;-81
2023/09/13 09:21:32;;;;;;;9.52;2.10;;;17.50;99.90;;;;;;6220302;23;20051;-81
2023/09/13 09:23:58;;;;;;;6.95;1.52;;;17.50;99.90;;;;;;6220450;23;20390;-81
2023/09/13 09:26:24;;;;;;;8.63;1.73;;;17.40;99.90;;;;;;6220833;23;20020;-81
2023/09/13 09:28:50;;;;;;;11.60;1.95;;;17.40;99.90;;;;;;6221155;23;20022;-81
2023/09/13 09:31:25;;;;;;;7.45;1.85;;;17.50;99.90;;;;;;6220462;23;20014;-81
2023/09/13 09:34:03;;;;;;;7.90;1.92;;;17.50;99.90;;;;;;6220860;23;20433;-82
2023/09/13 09:36:34;;;;;;;11.70;2.05;;;17.70;99.90;;;;;;6219784;23;20023;-81
2023/09/13 09:39:01;;;;;;;8.85;1.73;;;17.70;99.90;;;;;;6195659;23;20016;-81
2023/09/13 09:41:35;;;;;;;7.00;1.90;;;17.70;99.90;;;;;;6220796;23;20515;-81
2023/09/13 09:44:02;;;;;;;13.30;2.43;;;17.70;99.90;;;;;;6220760;23;20042;-82
2023/09/13 09:46:27;;;;;;;9.13;1.88;;;17.70;99.90;;;;;;6221049;23;20247;-82
2023/09/13 09:48:53;;;;;;;5.72;1.67;;;17.60;99.90;;;;;;6220326;23;20457;-82
2023/09/13 09:51:20;;;;;;;7.15;1.83;;;17.60;99.90;;;;;;6220121;23;20048;-82
2023/09/13 09:53:46;;;;;;;9.05;1.83;;;17.50;99.90;;;;;;6220148;23;20016;-83
2023/09/13 09:56:12;;;;;;;9.43;2.17;;;17.50;99.90;;;;;;6220321;23;20012;-82
2023/09/13 09:58:38;;;;;;;9.70;2.10;;;17.50;99.90;;;;;;6220448;23;20023;-82
2023/09/13 10:01:04;;;;;;;7.38;1.83;;;17.50;99.90;;;;;;6219361;23;20091;-80
2023/09/13 10:03:34;;;;;;;9.82;2.08;;;17.50;99.90;;;;;;6218820;23;20070;-79
2023/09/13 10:06:13;;;;;;;11.45;2.45;;;17.60;99.90;;;;;;6219744;23;20508;-81
2023/09/13 10:08:41;;;;;;;9.75;2.50;;;17.50;99.90;;;;;;6220405;23;20456;-81
2023/09/13 10:11:17;;;;;;;8.88;2.15;;;17.50;99.90;;;;;;6219763;23;20019;-81
2023/09/13 10:13:47;;;;;;;9.10;2.25;;;17.50;99.90;;;;;;6219904;23;20015;-81
2023/09/13 10:16:14;;;;;;;8.48;2.10;;;17.60;99.90;;;;;;6219914;23;20411;-80
2023/09/13 10:18:52;;;;;;;8.75;2.20;;;17.70;99.90;;;;;;6220291;23;20087;-81
2023/09/13 10:21:32;;;;;;;8.90;2.00;;;17.80;99.90;;;;;;6220010;23;20329;-81
2023/09/13 10:24:02;;;;;;;18.73;2.47;;;17.90;99.90;;;;;;6220263;23;20087;-80
2023/09/13 10:26:31;;;;;;;7.88;1.80;;;17.90;99.90;;;;;;6220416;23;20012;-81
2023/09/13 10:29:07;;;;;;;7.45;1.77;;;18.00;99.90;;;;;;6220500;23;20103;-80
2023/09/13 10:31:39;;;;;;;8.38;2.30;;;18.10;99.90;;;;;;6219499;23;20450;-80
2023/09/13 10:34:09;;;;;;;7.50;1.83;;;18.10;99.90;;;;;;6219940;23;20026;-80
2023/09/13 10:36:42;;;;;;;7.40;2.25;;;18.20;99.90;;;;;;6219905;23;20008;-79
2023/09/13 10:39:30;;;;;;;9.68;2.05;;;18.30;99.90;;;;;;6219998;23;20461;-80
2023/09/13 10:42:07;;;;;;;7.93;2.45;;;18.30;99.90;;;;;;6219752;23;20031;-82
2023/09/13 10:44:36;;;;;;;6.82;1.70;;;18.40;99.90;;;;;;6220045;23;20078;-81
2023/09/13 10:47:04;;;;;;;6.53;2.00;;;18.50;99.90;;;;;;6246156;23;20517;-81
2023/09/13 10:49:30;;;;;;;6.15;1.88;;;18.50;99.90;;;;;;6219478;23;20346;-81
2023/09/13 10:51:58;;;;;;;10.00;1.75;;;18.60;99.90;;;;;;6219501;23;20020;-80
2023/09/13 10:54:25;;;;;;;9.40;2.45;;;18.70;99.90;;;;;;6219395;23;20058;-83
2023/09/13 10:56:51;;;;;;;13.55;2.75;;;18.70;99.90;;;;;;6219679;23;20099;-81
2023/09/13 10:59:21;;;;;;;8.30;1.95;;;18.90;99.90;;;;;;6218919;23;20077;-83
2023/09/13 11:01:48;;;;;;;7.22;1.88;;;18.90;99.90;;;;;;6218589;23;20012;-81
2023/09/13 11:04:19;;;;;;;9.88;1.95;;;19.00;99.90;;;;;;6217867;23;20016;-82
2023/09/13 11:06:46;;;;;;;7.93;1.95;;;19.00;99.90;;;;;;6218797;23;20012;-81
2023/09/13 11:09:17;;;;;;;9.70;2.10;;;19.10;99.90;;;;;;6219237;23;20022;-82
2023/09/13 11:11:47;;;;;;;7.45;2.10;;;19.10;99.90;;;;;;6218633;23;20114;-82
2023/09/13 11:14:18;;;;;;;8.32;1.75;;;19.20;99.90;;;;;;6219433;23;20012;-85
2023/09/13 11:16:46;;;;;;;5.38;1.50;;;19.30;99.90;;;;;;6219605;23;20425;-85
2023/09/13 11:19:14;;;;;;;9.05;1.70;;;19.20;99.90;;;;;;6219572;23;20016;-82
2023/09/13 11:21:50;;;;;;;6.88;2.13;;;19.30;99.90;;;;;;6194723;23;20016;-82
2023/09/13 11:24:35;;;;;;;4.13;1.40;;;19.30;99.90;;;;;;6219593;23;20012;-82
2023/09/13 11:27:12;;;;;;;7.78;1.50;;;19.40;99.90;;;;;;6219364;23;20085;-81
2023/09/13 11:29:42;;;;;;;10.65;1.73;;;19.60;99.90;;;;;;6219030;22;20351;-81
2023/09/13 11:32:14;;;;;;;5.72;1.38;;;19.70;99.90;;;;;;6219612;23;20027;-82
2023/09/13 11:34:40;;;;;;;6.55;1.70;;;19.90;99.90;;;;;;6218983;23;20396;-82
2023/09/13 11:37:07;;;;;;;6.68;1.90;;;20.00;99.90;;;;;;6219324;23;20021;-83
2023/09/13 11:39:39;;;;;;;5.75;1.20;;;20.10;99.90;;;;;;6194479;23;20504;-82
2023/09/13 11:42:09;;;;;;;5.43;1.40;;;20.00;99.90;;;;;;6218960;23;20026;-82
2023/09/13 11:44:37;;;;;;;7.15;1.23;;;20.10;99.90;;;;;;6218941;23;20095;-82
2023/09/13 11:47:03;;;;;;;5.57;1.40;;;20.20;99.90;;;;;;6218494;23;20483;-81
2023/09/13 11:49:29;;;;;;;5.82;1.50;;;20.30;99.90;;;;;;6218688;23;20020;-81
2023/09/13 11:51:57;;;;;;;5.15;1.40;;;20.40;99.90;;;;;;6219391;23;20019;-82
2023/09/13 11:54:24;;;;;;;6.53;1.50;;;20.30;99.90;;;;;;6219211;23;20340;-85
2023/09/13 11:56:53;;;;;;;6.05;1.20;;;20.30;99.90;;;;;;6219366;23;20012;-85
2023/09/13 11:59:37;;;;;;;6.18;1.30;;;20.30;99.90;;;;;;6220877;23;20008;-83
2023/09/13 12:02:04;;;;;;;6.60;1.65;;;20.30;99.90;;;;;;6194745;23;20469;-83
2023/09/13 12:04:33;;;;;;;5.13;1.20;;;20.30;99.90;;;;;;6221043;23;20090;-83
2023/09/13 12:06:59;;;;;;;4.38;1.30;;;20.20;99.90;;;;;;6196067;23;20020;-83
2023/09/13 12:09:28;;;;;;;5.47;1.17;;;20.30;99.90;;;;;;6246861;23;20020;-83
2023/09/13 12:11:56;;;;;;;4.90;1.30;;;20.30;99.90;;;;;;6218695;23;20022;-78
2023/09/13 12:14:26;;;;;;;6.03;1.60;;;20.30;99.90;;;;;;6197037;23;20013;-88
2023/09/13 12:16:55;;;;;;;5.13;1.10;;;20.30;99.90;;;;;;6253124;23;20020;-91
2023/09/13 12:19:27;;;;;;;5.55;1.40;;;20.30;99.90;;;;;;6251088;23;20243;-86
2023/09/13 12:21:56;;;;;;;4.50;1.25;;;20.30;99.90;;;;;;6250194;23;20048;-83
2023/09/13 12:24:25;;;;;;;5.78;1.40;;;20.30;99.90;;;;;;6223354;23;20023;-82
2023/09/13 12:26:52;;;;;;;5.32;1.35;;;20.30;99.90;;;;;;6197320;23;20354;-84
2023/09/13 12:29:18;;;;;;;7.97;1.58;;;20.50;99.90;;;;;;6223531;23;20028;-90
2023/09/13 12:31:44;;;;;;;9.52;1.17;;;20.50;99.90;;;;;;6201330;23;20023;-90
2023/09/13 12:34:10;;;;;;;6.80;1.13;;;20.60;99.90;;;;;;6200748;23;20039;-88
2023/09/13 12:36:36;;;;;;;5.38;1.20;;;20.50;99.90;;;;;;6227170;23;20020;-90
2023/09/13 12:39:04;;;;;;;5.10;1.20;;;20.40;99.90;;;;;;6227068;23;20079;-90
2023/09/13 12:41:33;;;;;;;7.22;1.77;;;20.30;99.90;;;;;;6203309;23;20019;-88
2023/09/13 12:44:00;;;;;;;5.90;1.20;;;20.10;99.90;;;;;;6226557;23;20551;-90
2023/09/13 12:46:27;;;;;;;7.60;1.48;;;20.00;99.90;;;;;;6227191;23;20079;-87
2023/09/13 12:48:57;;;;;;;9.85;1.38;;;19.90;99.90;;;;;;6225671;23;20035;-85
2023/09/13 12:51:29;;;;;;;11.07;1.58;;;19.90;99.90;;;;;;6200925;23;20417;-86
2023/09/13 12:53:56;;;;;;;8.85;1.48;;;19.80;99.90;;;;;;6226417;23;20012;-86
2023/09/13 12:56:25;;;;;;;8.27;1.30;;;19.70;99.90;;;;;;6254468;23;20029;-87
2023/09/13 12:58:57;;;;;;;6.90;1.50;;;19.70;99.90;;;;;;6201702;23;20020;-86
2023/09/13 13:01:24;;;;;;;7.97;1.40;;;19.70;99.90;;;;;;6226941;23;20016;-87
2023/09/13 13:04:08;;;;;;;8.40;1.58;;;19.70;99.90;;;;;;6227209;23;20027;-84
2023/09/13 13:06:52;;;;;;;;;;;19.70;99.90;;;;;;6226948;23;20048;-84
2023/09/13 13:09:21;;;;;;;8.07;1.63;;;19.70;99.90;;;;;;6202025;23;19920;-84
2023/09/13 13:11:49;;;;;;;7.95;1.20;;;19.60;99.90;;;;;;6225828;23;20016;-84
2023/09/13 13:14:17;;;;;;;8.52;1.08;;;19.50;99.90;;;;;;6199657;23;20012;-85
2023/09/13 13:16:44;;;;;;;11.88;1.92;;;19.40;99.90;;;;;;6226153;23;20012;-86
2023/09/13 13:19:10;;;;;;;6.38;1.50;;;19.40;99.90;;;;;;6226086;23;20060;-84
2023/09/13 13:21:38;;;;;;;7.80;1.70;;;19.30;99.90;;;;;;6226699;23;20079;-87
2023/09/13 13:24:04;;;;;;;11.57;2.30;;;19.20;99.90;;;;;;6200371;23;20016;-85
2023/09/13 13:26:31;;;;;;;8.13;1.60;;;19.10;99.90;;;;;;6198844;23;20302;-86
2023/09/13 13:29:02;;;;;;;10.23;1.73;;;19.00;99.90;;;;;;6223759;23;20022;-86
2023/09/13 13:31:29;;;;;;;11.65;1.83;;;18.80;99.90;;;;;;6223009;23;20016;-84
2023/09/13 13:33:55;;;;;;;9.15;1.83;;;18.80;99.90;;;;;;6198549;23;20024;-85
2023/09/13 13:36:22;;;;;;;7.80;2.20;;;18.60;99.90;;;;;;6223129;23;20019;-85
2023/09/13 13:38:49;;;;;;;11.80;1.90;;;18.60;99.90;;;;;;6223735;23;20023;-86
2023/09/13 13:41:17;;;;;;;9.27;1.70;;;18.60;99.90;;;;;;6225690;23;20018;-87
2023/09/13 13:43:43;;;;;;;15.88;2.33;;;18.60;99.90;;;;;;6225856;23;20016;-87
2023/09/13 13:46:12;;;;;;;6.53;1.38;;;18.60;99.90;;;;;;6226653;23;20050;-85
2023/09/13 13:48:38;;;;;;;8.38;1.60;;;18.70;99.90;;;;;;6226002;23;20056;-88
2023/09/13 13:51:05;;;;;;;4.15;0.85;;;18.70;99.90;;;;;;6226029;23;20016;-86
2023/09/13 13:53:32;;;;;;;7.43;1.33;;;18.80;99.90;;;;;;6225672;23;20027;-86
2023/09/13 13:56:00;;;;;;;6.55;1.40;;;18.90;99.90;;;;;;6224544;23;20086;-87
2023/09/13 13:58:26;;;;;;;12.73;1.98;;;18.90;99.90;;;;;;6225080;23;20054;-87
2023/09/13 14:00:55;;;;;;;9.27;1.40;;;18.90;99.90;;;;;;6200648;23;20320;-87
2023/09/13 14:03:22;;;;;;;9.13;1.65;;;19.00;99.90;;;;;;6251429;23;20075;-84
2023/09/13 14:05:52;;;;;;;10.70;1.75;;;19.00;99.90;;;;;;6225780;23;20052;-87
2023/09/13 14:08:22;;;;;;;8.45;1.50;;;19.00;99.90;;;;;;6252743;23;20052;-87
2023/09/13 14:10:52;;;;;;;9.13;1.63;;;19.10;99.90;;;;;;6200613;23;20016;-87
2023/09/13 14:13:20;;;;;;;8.02;1.55;;;19.10;99.90;;;;;;6225303;23;20039;-86
2023/09/13 14:15:46;;;;;;;14.43;2.05;;;19.10;99.90;;;;;;6225371;23;20013;-86
2023/09/13 14:18:13;;;;;;;11.15;1.95;;;19.10;99.90;;;;;;6224953;23;20026;-87
2023/09/13 14:20:42;;;;;;;10.60;1.45;;;19.20;99.90;;;;;;6175691;23;20066;-85
2023/09/13 14:23:13;;;;;;;8.88;1.17;;;19.20;99.90;;;;;;6200907;23;20483;-85
2023/09/13 14:25:44;;;;;;;6.00;1.40;;;19.20;99.90;;;;;;6224986;23;20054;-86
2023/09/13 14:28:12;;;;;;;6.13;1.33;;;19.30;99.90;;;;;;6251678;23;20095;-84
2023/09/13 14:30:41;;;;;;;11.57;1.80;;;19.30;99.90;;;;;;6224750;23;20026;-86
2023/09/13 14:33:08;;;;;;;9.02;1.63;;;19.30;99.90;;;;;;6225590;23;20229;-80
2023/09/13 14:35:35;;;;;;;7.40;1.55;;;19.30;99.90;;;;;;6198719;23;20016;-80
2023/09/13 14:38:01;;;;;;;8.50;1.40;;;19.30;99.90;;;;;;6223731;23;20039;-89
2023/09/13 14:40:28;;;;;;;7.25;1.50;;;19.30;99.90;;;;;;6251224;23;20027;-81
2023/09/13 14:42:54;;;;;;;8.73;1.48;;;19.30;99.90;;;;;;6220616;23;20346;-81
2023/09/13 14:45:19;;;;;;;7.82;1.60;;;19.20;99.90;;;;;;6220354;23;20028;-76
2023/09/13 14:47:46;;;;;;;5.53;1.27;;;19.20;99.90;;;;;;6220364;23;20016;-78
2023/09/13 14:50:12;;;;;;;8.70;1.58;;;19.20;99.90;;;;;;6220627;23;20048;-81
2023/09/13 14:52:38;;;;;;;9.13;1.50;;;19.20;99.90;;;;;;6196346;23;20027;-80
2023/09/13 14:55:07;;;;;;;5.05;1.35;;;19.20;99.90;;;;;;6219416;23;20022;-75
2023/09/13 14:57:35;;;;;;;6.05;1.30;;;19.30;99.90;;;;;;6244907;23;20012;-76
2023/09/13 15:00:05;;;;;;;5.40;1.38;;;19.40;99.90;;;;;;6219376;23;20401;-76
2023/09/13 15:02:37;;;;;;;8.43;1.90;;;19.40;99.90;;;;;;6195312;23;20028;-77
2023/09/13 15:05:05;;;;;;;6.38;1.42;;;19.40;99.90;;;;;;6246482;23;20012;-76
2023/09/13 15:07:30;;;;;;;7.25;1.20;;;19.40;99.90;;;;;;6219276;23;20322;-77
2023/09/13 15:09:56;;;;;;;8.68;1.65;;;19.50;99.90;;;;;;6218220;23;20103;-76
2023/09/13 15:12:25;;;;;;;7.78;1.48;;;19.50;99.90;;;;;;6218077;23;20016;-77
2023/09/13 15:14:52;;;;;;;8.57;1.50;;;19.50;99.90;;;;;;6245208;23;20020;-78
2023/09/13 15:17:18;;;;;;;8.90;1.65;;;19.50;99.90;;;;;;6218735;23;20031;-78
2023/09/13 15:19:44;;;;;;;6.20;1.30;;;19.60;99.90;;;;;;6218628;23;20329;-78
2023/09/13 15:22:09;;;;;;;8.10;1.83;;;19.60;99.90;;;;;;6243679;23;20016;-78
2023/09/13 15:24:38;;;;;;;8.77;1.40;;;19.60;99.90;;;;;;6218574;23;20016;-77
2023/09/13 15:27:04;;;;;;;11.05;1.38;;;19.60;99.90;;;;;;6219155;23;20400;-80
2023/09/13 15:29:31;;;;;;;9.45;1.63;;;19.50;99.90;;;;;;6218816;23;20022;-78
2023/09/13 15:31:58;;;;;;;7.07;1.80;;;19.50;99.90;;;;;;6219308;23;20313;-80
2023/09/13 15:34:24;;;;;;;4.32;1.50;;;19.50;99.90;;;;;;6219575;23;20059;-79
2023/09/13 15:36:53;;;;;;;9.15;1.50;;;19.50;99.90;;;;;;6219158;23;20023;-76
2023/09/13 15:39:19;;;;;;;8.75;1.85;;;19.50;99.90;;;;;;6245794;23;20110;-76
2023/09/13 15:41:54;;;;;;;9.25;1.60;;;19.50;99.90;;;;;;6221498;23;20054;-78
2023/09/13 15:44:19;;;;;;;8.05;1.75;;;19.40;99.90;;;;;;6245357;23;20349;-78
2023/09/13 15:46:48;;;;;;;6.45;1.40;;;19.40;99.90;;;;;;6245810;22;20024;-78
2023/09/13 15:49:20;;;;;;;5.82;1.40;;;19.40;99.90;;;;;;6219246;23;20024;-76
2023/09/13 15:51:46;;;;;;;7.38;1.48;;;19.30;99.90;;;;;;6245793;23;20094;-76
2023/09/13 15:54:12;;;;;;;7.57;1.45;;;19.30;99.90;;;;;;6218959;23;20062;-76
2023/09/13 15:56:39;;;;;;;8.68;1.70;;;19.30;99.90;;;;;;6245682;23;20024;-75
2023/09/13 15:59:05;;;;;;;6.25;1.60;;;19.30;99.90;;;;;;6245709;23;20038;-75
2023/09/13 16:01:31;;;;;;;7.35;1.55;;;19.20;99.90;;;;;;6194049;23;20425;-76
2023/09/13 16:03:57;;;;;;;9.45;2.00;;;19.20;99.90;;;;;;6194028;23;20067;-75
2023/09/13 16:06:23;;;;;;;9.65;1.40;;;19.20;99.90;;;;;;6245705;23;20016;-76
2023/09/13 16:08:49;;;;;;;10.35;1.60;;;19.30;99.90;;;;;;6245650;23;20016;-77
2023/09/13 16:11:14;;;;;;;6.25;1.27;;;19.30;99.90;;;;;;6246070;23;20313;-75
2023/09/13 16:13:43;;;;;;;10.48;1.40;;;19.30;99.90;;;;;;6192398;23;20462;-77
2023/09/13 16:16:09;;;;;;;7.10;1.58;;;19.30;99.90;;;;;;6245979;23;20392;-76
2023/09/13 16:18:36;;;;;;;8.73;1.58;;;19.30;99.90;;;;;;6245102;23;20047;-76
2023/09/13 16:21:02;;;;;;;7.30;1.48;;;19.20;99.90;;;;;;6218847;23;20047;-76
2023/09/13 16:23:28;;;;;;;8.13;1.40;;;19.20;99.90;;;;;;6245325;23;20039;-82
2023/09/13 16:25:54;;;;;;;6.38;1.67;;;19.20;99.90;;;;;;6219312;23;20520;-78
2023/09/13 16:28:21;;;;;;;7.15;2.40;;;19.20;99.90;;;;;;6218790;23;20445;-77
2023/09/13 16:30:47;;;;;;;11.43;2.72;;;19.20;99.90;;;;;;6243972;23;20016;-78
2023/09/13 16:33:12;;;;;;;8.40;1.75;;;19.20;99.90;;;;;;6219274;23;20020;-78
2023/09/13 16:35:38;;;;;;;8.27;1.52;;;19.10;99.90;;;;;;6220856;23;20648;-79
2023/09/13 16:38:07;;;;;;;12.68;1.95;;;19.10;99.90;;;;;;6222015;23;20039;-78
2023/09/13 16:40:33;;;;;;;7.75;2.58;;;19.10;99.90;;;;;;6221171;23;20441;-77
2023/09/13 16:42:58;;;;;;;4.32;1.33;;;19.00;99.90;;;;;;6222485;23;20389;-79
2023/09/13 16:45:26;;;;;;;11.18;2.30;;;19.00;99.90;;;;;;6222452;23;20016;-79
2023/09/13 16:47:52;;;;;;;7.25;1.90;;;18.90;99.90;;;;;;6248850;22;20020;-78
2023/09/13 16:50:18;;;;;;;8.13;1.73;;;18.90;99.90;;;;;;6196532;23;20314;-78
2023/09/13 16:52:45;;;;;;;11.80;1.88;;;18.80;99.90;;;;;;6221806;23;20042;-77
2023/09/13 16:55:13;;;;;;;8.00;1.80;;;18.80;99.90;;;;;;6221518;23;20012;-77
2023/09/13 16:57:38;;;;;;;7.43;1.60;;;18.70;99.90;;;;;;6246327;23;20295;-80
2023/09/13 17:00:06;;;;;;;8.27;2.05;;;18.70;99.90;;;;;;6247341;23;20020;-80
2023/09/13 17:02:32;;;;;;;8.35;2.40;;;18.70;99.90;;;;;;6220130;23;20016;-78
2023/09/13 17:04:58;;;;;;;7.15;1.67;;;18.60;99.90;;;;;;6247459;23;20008;-78
2023/09/13 17:07:24;;;;;;;7.57;1.40;;;18.60;99.90;;;;;;6247226;23;20065;-79
2023/09/13 17:09:49;;;;;;;6.10;1.42;;;18.60;99.90;;;;;;6220373;23;20023;-78
2023/09/13 17:12:15;;;;;;;8.00;1.50;;;18.50;99.90;;;;;;6220264;23;20043;-77
2023/09/13 17:14:41;;;;;;;7.55;1.60;;;18.50;99.90;;;;;;6194800;23;20489;-78
2023/09/13 17:17:09;;;;;;;6.80;1.50;;;18.50;99.90;;;;;;6219954;23;20031;-79
2023/09/13 17:19:35;;;;;;;5.45;1.27;;;18.40;99.90;;;;;;6247068;23;20024;-78
2023/09/13 17:22:00;;;;;;;9.70;1.80;;;18.40;99.90;;;;;;6220089;23;20012;-79
2023/09/13 17:24:28;;;;;;;5.60;1.42;;;18.40;99.90;;;;;;6247009;23;20123;-79
2023/09/13 17:26:54;;;;;;;5.85;1.58;;;18.30;99.90;;;;;;6219311;23;20051;-79
2023/09/13 17:29:20;;;;;;;8.50;1.63;;;18.30;99.90;;;;;;6246636;23;20039;-78
2023/09/13 17:31:45;;;;;;;7.15;1.95;;;18.20;99.90;;;;;;6246866;23;20118;-77
2023/09/13 17:34:11;;;;;;;7.63;1.48;;;18.20;99.90;;;;;;6246467;23;20142;-78
2023/09/13 17:36:39;;;;;;;6.68;1.55;;;18.10;99.90;;;;;;6246360;23;20503;-78
2023/09/13 17:39:08;;;;;;;8.15;1.25;;;18.10;99.90;;;;;;6246672;23;20062;-78
2023/09/13 17:41:34;;;;;;;6.45;1.55;;;18.00;99.90;;;;;;6246379;23;20058;-78
2023/09/13 17:43:59;;;;;;;6.78;1.52;;;17.90;99.90;;;;;;6246639;23;20016;-78
2023/09/13 17:46:25;;;;;;;9.20;1.95;;;17.90;99.90;;;;;;6246295;23;20414;-77
2023/09/13 17:48:50;;;;;;;7.93;1.70;;;17.90;99.90;;;;;;6246717;22;20020;-77
2023/09/13 17:51:17;;;;;;;9.70;1.60;;;17.80;99.90;;;;;;6246861;23;20012;-77
2023/09/13 17:53:42;;;;;;;6.53;1.40;;;17.80;99.90;;;;;;6247033;23;20087;-78
2023/09/13 17:56:09;;;;;;;8.02;1.55;;;17.70;99.90;;;;;;6246914;23;20051;-79
2023/09/13 17:58:35;;;;;;;6.75;1.80;;;17.60;99.90;;;;;;6246972;23;20062;-77
2023/09/13 18:01:01;;;;;;;6.43;1.42;;;17.70;99.90;;;;;;6246756;23;20380;-78
2023/09/13 18:03:26;;;;;;;5.90;1.48;;;17.60;99.90;;;;;;6246650;23;20019;-78
2023/09/13 18:05:52;;;;;;;7.00;1.80;;;17.60;99.90;;;;;;6246798;23;20020;-78
2023/09/13 18:08:18;;;;;;;9.10;1.83;;;17.60;99.90;;;;;;6246729;23;20008;-78
2023/09/13 18:10:44;;;;;;;5.13;1.60;;;17.50;99.90;;;;;;6219300;23;20122;-79
2023/09/13 18:13:09;;;;;;;9.98;1.70;;;17.50;99.90;;;;;;6219596;23;20433;-80
2023/09/13 18:15:35;;;;;;;7.85;2.25;;;17.40;99.90;;;;;;6246558;23;20016;-77
2023/09/13 18:18:02;;;;;;;6.85;1.48;;;17.40;99.90;;;;;;6246593;23;20334;-78